Cullowhee, NC

8:24 AM EDT on April 27, 2015 (GMT -0400)
Cullowhee | | Change Station
CLOSE
Current Station
Personal Weather Station
Location: Cullowhee, NC
Elevation: 2359 ft
Nearby Weather Stations

Elev 2359 ft 35.30 °N, 83.16 °W | Updated 5 seconds ago

Partly Cloudy
Partly Cloudy
47.2 °F
Feels Like 47 °F
N
0.0
Wind Variable Wind from ENE
Gusts 0.0 mph

Today
High -- | Low -- °F
--% Chance of Precip.
Yesterday
High -- | Low -- °F
Precip. -- in
6:46 AM 8:15 PM
Waxing Gibbous, 64% visible
Pressure 29.87 in
Visibility 10.0 miles
Clouds Scattered Clouds 2500 ft
Mostly Cloudy 3700 ft
Mostly Cloudy 4500 ft
Windchill 47 °F
Dew Point 45 °F
Humidity 91%
Rainfall 0.00 in
Snow Depth Not available.
UV 1 out of 12
Pollen 8.00 out of 12
Air Quality Not available.
Flu Activity Sporadic
SPECI KAVL 271208Z 35008KT 10SM SCT025 BKN037 BKN045 10/05 A2987 RMK AO2 T01000050

More Conditions Fewer Conditions

Pressure 29.87 in
Visibility 10.0 miles
Clouds Scattered Clouds 2500 ft
Mostly Cloudy 3700 ft
Mostly Cloudy 4500 ft
Windchill 47 °F
Dew Point 45 °F
Humidity 91%
Rainfall 0.00 in
Snow Depth Not available.
UV 1 out of 12
Pollen 8.00 out of 12
Air Quality Not available.
Flu Activity Sporadic
SPECI KAVL 271208Z 35008KT 10SM SCT025 BKN037 BKN045 10/05 A2987 RMK AO2 T01000050

More Conditions Fewer Conditions

10-Day Weather Forecast

Almanac

Astronomy

Apr. 27, 2015 Rise Set
Actual Time
Civil Twilight
Nautical Twilight
Astronomical Twilight
Moon
Length of Visible Light
Length of Day
Tomorrow will be .
, % of the Moon is Illuminated

Today's Extremes

State Highs State Lows

Community

WunderPhotos

Upload Photos

1,817,290 photos uploaded!

WunderBlogs® & News

Nearby

Air Quality

  Air Quality AQ Index Pollutant
Not available.

Snow Depth

Station Depth Elevation

Earthquake Activity

City Distance Mag. Time & Date
Minimum magnitude displayed is 2.5.

Coastal Water Temperatures

Place Temperature

Stations

Nearby Weather Stations

Station Location Temp. Windchill Dew Point Humidity Wind Precip. Elev Updated Type